Time;durP1;ratioP1;P1;durP2;ratioP2;P2;SDS_P1;SDS_P2;PMS_P1;PMS_P2;Temp;Humidity;BMP_temperature;BMP_pressure;BME280_temperature;BME280_humidity;BME280_pressure;Samples;Min_cycle;Max_cycle;Signal;HPM_P1;HPM_P2
2022/01/05 00:01:31;;;;;;;40.47;31.23;;;;;;;;;;5016686;28;20030;-65
2022/01/05 00:03:57;;;;;;;44.63;31.37;;;;;;;;;;5019779;28;20037;-65
2022/01/05 00:06:23;;;;;;;46.13;30.27;;;;;;;;;;5013897;28;20529;-65
2022/01/05 00:08:49;;;;;;;40.90;30.37;;;;;;;;;;5015465;28;20112;-65
2022/01/05 00:11:15;;;;;;;37.90;28.73;;;;;;;;;;5010397;28;20049;-65
2022/01/05 00:13:42;;;;;;;44.13;30.17;;;;;;;;;;5008866;28;20050;-65
2022/01/05 00:16:08;;;;;;;41.13;29.67;;;;;;;;;;5014702;28;20034;-65
2022/01/05 00:18:34;;;;;;;49.17;33.40;;;;;;;;;;5015415;28;20030;-65
2022/01/05 00:21:01;;;;;;;50.03;33.03;;;;;;;;;;5014180;28;20049;-65
2022/01/05 00:23:27;;;;;;;50.87;34.77;;;;;;;;;;5015959;28;20074;-65
2022/01/05 00:25:54;;;;;;;47.70;32.03;;;;;;;;;;5019947;28;20026;-65
2022/01/05 00:28:20;;;;;;;44.83;32.77;;;;;;;;;;4997636;28;20061;-65
2022/01/05 00:30:46;;;;;;;49.27;33.83;;;;;;;;;;5014135;28;20061;-65
2022/01/05 00:33:14;;;;;;;45.90;32.40;;;;;;;;;;5014752;28;20042;-65
2022/01/05 00:35:40;;;;;;;47.43;34.13;;;;;;;;;;5016680;28;20026;-65
2022/01/05 00:38:06;;;;;;;48.40;34.13;;;;;;;;;;5014471;28;20137;-65
2022/01/05 00:40:32;;;;;;;48.33;33.03;;;;;;;;;;5014164;28;20026;-65
2022/01/05 00:42:58;;;;;;;42.90;31.43;;;;;;;;;;5014687;28;20438;-65
2022/01/05 00:45:25;;;;;;;43.13;31.67;;;;;;;;;;5013857;28;20018;-65
2022/01/05 00:47:51;;;;;;;47.63;33.20;;;;;;;;;;5013942;28;20030;-65
2022/01/05 00:50:17;;;;;;;45.43;31.03;;;;;;;;;;5014519;28;20100;-65
2022/01/05 00:52:43;;;;;;;41.90;31.00;;;;;;;;;;5014364;28;20034;-65
2022/01/05 00:55:09;;;;;;;43.00;31.47;;;;;;;;;;4999173;28;20069;-65
2022/01/05 00:57:35;;;;;;;41.40;30.77;;;;;;;;;;5013560;28;20033;-65
2022/01/05 01:00:02;;;;;;;40.10;29.37;;;;;;;;;;5014024;28;20030;-65
2022/01/05 01:02:28;;;;;;;43.53;30.57;;;;;;;;;;5013628;28;20041;-65
2022/01/05 01:04:54;;;;;;;44.50;31.90;;;;;;;;;;5013540;28;20022;-65
2022/01/05 01:07:20;;;;;;;47.33;32.63;;;;;;;;;;5014677;28;20480;-65
2022/01/05 01:09:46;;;;;;;47.93;33.17;;;;;;;;;;5011819;28;20068;-65
2022/01/05 01:12:12;;;;;;;47.83;33.10;;;;;;;;;;5018211;28;20046;-64
2022/01/05 01:14:38;;;;;;;48.20;33.53;;;;;;;;;;4996818;28;20399;-65
2022/01/05 01:17:04;;;;;;;50.47;34.10;;;;;;;;;;5013563;28;20109;-65
2022/01/05 01:19:30;;;;;;;48.53;33.30;;;;;;;;;;5016380;28;20033;-65
2022/01/05 01:21:58;;;;;;;51.63;34.83;;;;;;;;;;5000089;28;20531;-65
2022/01/05 01:24:24;;;;;;;68.37;40.77;;;;;;;;;;5013187;28;20029;-65
2022/01/05 01:26:50;;;;;;;82.07;45.53;;;;;;;;;;5013367;28;20101;-65
2022/01/05 01:29:16;;;;;;;86.30;49.13;;;;;;;;;;5013874;28;20026;-65
2022/01/05 01:31:42;;;;;;;95.40;54.10;;;;;;;;;;5013422;28;20116;-65
2022/01/05 01:34:08;;;;;;;93.60;53.13;;;;;;;;;;5013407;28;20026;-65
2022/01/05 01:36:34;;;;;;;96.37;51.83;;;;;;;;;;5013284;28;20087;-65
2022/01/05 01:39:00;;;;;;;92.23;51.83;;;;;;;;;;5013329;28;20105;-65
2022/01/05 01:41:26;;;;;;;98.33;52.87;;;;;;;;;;5012547;28;20025;-65
2022/01/05 01:43:52;;;;;;;97.43;54.47;;;;;;;;;;5013832;28;20060;-65
2022/01/05 01:46:18;;;;;;;99.07;53.87;;;;;;;;;;5019313;28;20080;-65
2022/01/05 01:48:44;;;;;;;97.73;55.17;;;;;;;;;;5013384;28;20022;-65
2022/01/05 01:51:11;;;;;;;94.37;54.00;;;;;;;;;;5013393;28;20025;-65
2022/01/05 01:53:55;;;;;;;94.77;54.10;;;;;;;;;;5018166;28;20124;-65
2022/01/05 01:56:21;;;;;;;94.93;53.67;;;;;;;;;;5019134;28;20045;-65
2022/01/05 01:58:48;;;;;;;101.37;55.03;;;;;;;;;;5013581;28;20527;-65
2022/01/05 02:01:16;;;;;;;100.37;55.67;;;;;;;;;;5012636;28;20030;-64
2022/01/05 02:03:42;;;;;;;131.13;56.43;;;;;;;;;;5018022;28;20502;-64
2022/01/05 02:06:08;;;;;;;95.33;50.90;;;;;;;;;;5020960;28;20037;-65
2022/01/05 02:08:34;;;;;;;91.43;52.73;;;;;;;;;;5013086;28;20026;-64
2022/01/05 02:11:00;;;;;;;89.93;51.10;;;;;;;;;;4991570;28;20084;-64
2022/01/05 02:13:26;;;;;;;99.30;54.10;;;;;;;;;;5009628;28;20042;-64
2022/01/05 02:15:53;;;;;;;90.43;49.77;;;;;;;;;;5012480;28;20030;-64
2022/01/05 02:20:58;;;;;;;93.23;51.37;;;;;;;;;;5013426;28;20036;-64
2022/01/05 02:23:24;;;;;;;80.03;46.10;;;;;;;;;;5013111;28;20026;-64
2022/01/05 02:25:50;;;;;;;80.57;46.80;;;;;;;;;;5012439;28;20110;-64
2022/01/05 02:28:16;;;;;;;75.63;45.47;;;;;;;;;;5013434;28;20049;-64
2022/01/05 02:30:42;;;;;;;79.13;42.87;;;;;;;;;;5012343;28;20056;-64
2022/01/05 02:33:09;;;;;;;71.10;43.47;;;;;;;;;;5018227;28;20033;-64
2022/01/05 02:35:35;;;;;;;67.60;40.93;;;;;;;;;;5024530;28;20030;-64
2022/01/05 02:38:01;;;;;;;68.53;40.37;;;;;;;;;;5012628;28;20030;-64
2022/01/05 02:40:27;;;;;;;69.47;41.60;;;;;;;;;;4994645;28;20030;-64
2022/01/05 02:42:55;;;;;;;70.30;43.20;;;;;;;;;;5012636;28;20061;-64
2022/01/05 02:45:21;;;;;;;74.87;42.23;;;;;;;;;;5011879;28;20026;-64
2022/01/05 02:47:48;;;;;;;67.27;40.70;;;;;;;;;;5012426;28;20030;-64
2022/01/05 02:50:14;;;;;;;65.67;39.07;;;;;;;;;;5012686;28;20030;-64
2022/01/05 02:52:41;;;;;;;63.50;38.80;;;;;;;;;;5012697;28;20068;-64
2022/01/05 02:55:08;;;;;;;61.87;37.10;;;;;;;;;;5012590;28;20417;-64
2022/01/05 02:57:34;;;;;;;68.43;39.07;;;;;;;;;;5012634;28;20053;-64
2022/01/05 03:00:00;;;;;;;62.53;39.93;;;;;;;;;;5018262;28;20372;-64
2022/01/05 03:02:26;;;;;;;77.40;41.70;;;;;;;;;;5012161;28;20032;-64
2022/01/05 03:04:52;;;;;;;59.40;37.43;;;;;;;;;;5011885;28;20547;-64
2022/01/05 03:07:18;;;;;;;67.43;40.07;;;;;;;;;;5011652;28;20096;-63
2022/01/05 03:09:44;;;;;;;62.37;36.87;;;;;;;;;;5011624;28;20484;-64
2022/01/05 03:12:10;;;;;;;60.60;38.00;;;;;;;;;;5012678;28;20044;-63
2022/01/05 03:14:37;;;;;;;65.20;37.87;;;;;;;;;;5012811;28;20057;-64
2022/01/05 03:17:03;;;;;;;54.67;34.83;;;;;;;;;;5011996;28;20546;-64
2022/01/05 03:19:29;;;;;;;63.50;36.53;;;;;;;;;;5010015;28;20030;-64
2022/01/05 03:21:55;;;;;;;59.80;36.80;;;;;;;;;;5017148;28;20407;-64
2022/01/05 03:24:21;;;;;;;65.10;39.00;;;;;;;;;;4995279;28;20061;-64
2022/01/05 03:26:47;;;;;;;63.40;35.37;;;;;;;;;;5000745;28;20030;-64
2022/01/05 03:29:13;;;;;;;54.97;36.93;;;;;;;;;;5010620;28;20033;-64
2022/01/05 03:31:39;;;;;;;55.83;37.10;;;;;;;;;;5013700;28;20034;-64
2022/01/05 03:34:06;;;;;;;56.93;35.73;;;;;;;;;;5012433;28;20030;-64
2022/01/05 03:36:32;;;;;;;55.47;35.40;;;;;;;;;;5014043;28;20032;-64
2022/01/05 03:38:58;;;;;;;55.27;36.27;;;;;;;;;;5016021;28;20056;-64
2022/01/05 03:41:24;;;;;;;57.10;36.23;;;;;;;;;;5015348;28;20036;-64
2022/01/05 03:43:50;;;;;;;60.63;37.07;;;;;;;;;;5021281;28;20021;-64
2022/01/05 03:46:16;;;;;;;60.30;36.63;;;;;;;;;;5028410;28;20050;-64
2022/01/05 03:48:42;;;;;;;57.07;37.13;;;;;;;;;;5015828;28;20072;-64
2022/01/05 03:51:08;;;;;;;55.67;36.47;;;;;;;;;;5014562;28;20167;-64
2022/01/05 03:53:34;;;;;;;56.57;35.97;;;;;;;;;;5015843;28;20034;-64
2022/01/05 03:56:02;;;;;;;62.60;38.07;;;;;;;;;;5023130;28;20153;-65
2022/01/05 03:58:28;;;;;;;57.23;35.97;;;;;;;;;;5015827;28;20270;-64
2022/01/05 04:00:54;;;;;;;63.33;38.63;;;;;;;;;;5015305;28;20026;-64
2022/01/05 04:03:20;;;;;;;55.07;34.37;;;;;;;;;;5015747;28;20026;-63
2022/01/05 04:05:46;;;;;;;49.80;33.10;;;;;;;;;;4996846;28;20026;-64
2022/01/05 04:08:12;;;;;;;56.97;35.53;;;;;;;;;;5014875;28;20030;-63
2022/01/05 04:10:39;;;;;;;58.03;34.47;;;;;;;;;;5014566;28;20133;-64
2022/01/05 04:13:05;;;;;;;57.50;35.73;;;;;;;;;;4995169;28;20054;-64
2022/01/05 04:15:31;;;;;;;53.90;35.83;;;;;;;;;;5016496;28;20148;-64
2022/01/05 04:17:57;;;;;;;56.87;35.37;;;;;;;;;;5004977;28;20077;-64
2022/01/05 04:20:23;;;;;;;57.90;36.70;;;;;;;;;;5007466;28;20034;-64
2022/01/05 04:22:49;;;;;;;55.97;34.77;;;;;;;;;;4996194;28;20034;-64
2022/01/05 04:25:15;;;;;;;54.13;35.93;;;;;;;;;;4995938;28;20484;-64
2022/01/05 04:27:41;;;;;;;62.57;37.03;;;;;;;;;;5014977;28;20030;-64
2022/01/05 04:30:09;;;;;;;58.27;36.73;;;;;;;;;;5015003;28;20455;-64
2022/01/05 04:32:35;;;;;;;58.33;35.93;;;;;;;;;;5014854;28;20046;-64
2022/01/05 04:35:02;;;;;;;63.00;36.43;;;;;;;;;;5025780;28;20489;-64
2022/01/05 04:37:29;;;;;;;64.57;37.13;;;;;;;;;;5018362;28;20034;-64
2022/01/05 04:39:55;;;;;;;68.60;36.93;;;;;;;;;;5015156;28;20029;-64
2022/01/05 04:42:21;;;;;;;67.80;39.70;;;;;;;;;;5014471;28;20070;-64
2022/01/05 04:44:47;;;;;;;65.30;39.60;;;;;;;;;;5025047;28;20084;-64
2022/01/05 04:47:13;;;;;;;68.40;40.37;;;;;;;;;;5013277;28;20041;-64
2022/01/05 04:49:39;;;;;;;61.33;38.10;;;;;;;;;;5014768;28;20026;-64
2022/01/05 04:52:06;;;;;;;66.03;38.93;;;;;;;;;;5014095;28;20042;-64
2022/01/05 04:54:32;;;;;;;72.33;40.63;;;;;;;;;;5027104;28;20395;-64
2022/01/05 04:56:58;;;;;;;64.93;37.60;;;;;;;;;;5023618;28;20041;-63
2022/01/05 04:59:24;;;;;;;73.27;39.37;;;;;;;;;;5014879;28;20026;-63
2022/01/05 05:01:50;;;;;;;63.67;35.97;;;;;;;;;;4999656;28;20471;-63
2022/01/05 05:04:16;;;;;;;64.00;37.10;;;;;;;;;;5019844;28;20064;-63
2022/01/05 05:06:42;;;;;;;68.13;37.53;;;;;;;;;;5016479;28;20037;-63
2022/01/05 05:09:08;;;;;;;59.83;35.20;;;;;;;;;;5014275;28;20104;-63
2022/01/05 05:11:34;;;;;;;61.33;36.23;;;;;;;;;;5013730;28;20041;-63
2022/01/05 05:14:00;;;;;;;69.27;37.53;;;;;;;;;;5014379;28;20064;-63
2022/01/05 05:16:26;;;;;;;63.40;37.40;;;;;;;;;;5023481;28;20030;-64
2022/01/05 05:18:52;;;;;;;66.57;36.90;;;;;;;;;;5014019;28;20392;-63
2022/01/05 05:21:18;;;;;;;64.73;35.83;;;;;;;;;;5013983;28;20499;-63
2022/01/05 05:23:44;;;;;;;58.87;34.27;;;;;;;;;;5014257;28;20037;-63
2022/01/05 05:26:10;;;;;;;61.83;36.13;;;;;;;;;;5021582;28;20041;-63
2022/01/05 05:28:36;;;;;;;66.73;35.13;;;;;;;;;;4998197;28;20061;-64
2022/01/05 05:31:02;;;;;;;60.47;34.73;;;;;;;;;;5002642;28;20030;-64
2022/01/05 05:33:28;;;;;;;66.33;37.37;;;;;;;;;;5011154;28;20048;-64
2022/01/05 05:35:54;;;;;;;62.43;34.63;;;;;;;;;;5014042;28;20034;-63
2022/01/05 05:38:20;;;;;;;57.07;33.13;;;;;;;;;;5012606;28;20373;-63
2022/01/05 05:40:46;;;;;;;60.43;35.13;;;;;;;;;;5014310;28;20062;-63
2022/01/05 05:43:12;;;;;;;64.03;35.33;;;;;;;;;;5012470;28;20537;-63
2022/01/05 05:45:39;;;;;;;60.57;33.70;;;;;;;;;;5013106;28;20553;-63
2022/01/05 05:48:05;;;;;;;59.60;34.73;;;;;;;;;;5012358;28;20391;-63
2022/01/05 05:50:31;;;;;;;58.27;33.37;;;;;;;;;;5014112;28;20030;-63
2022/01/05 05:52:57;;;;;;;52.50;32.37;;;;;;;;;;5013227;28;20121;-63
2022/01/05 05:55:23;;;;;;;49.30;31.07;;;;;;;;;;5013866;28;20069;-63
2022/01/05 05:57:49;;;;;;;53.13;30.83;;;;;;;;;;5012663;28;20539;-63
2022/01/05 06:00:15;;;;;;;54.10;30.57;;;;;;;;;;5021227;28;20068;-63
2022/01/05 06:02:41;;;;;;;52.57;30.37;;;;;;;;;;5021807;28;20034;-63
2022/01/05 06:05:07;;;;;;;50.00;29.03;;;;;;;;;;5013778;28;20464;-63
2022/01/05 06:07:33;;;;;;;50.20;29.83;;;;;;;;;;5012862;28;20033;-63
2022/01/05 06:10:00;;;;;;;54.67;30.60;;;;;;;;;;5021415;28;20033;-63
2022/01/05 06:12:26;;;;;;;52.17;29.13;;;;;;;;;;5011361;28;20450;-63
2022/01/05 06:14:52;;;;;;;46.17;28.60;;;;;;;;;;5013920;28;20056;-63
2022/01/05 06:17:20;;;;;;;43.90;28.30;;;;;;;;;;5012475;28;20038;-63
2022/01/05 06:19:46;;;;;;;47.07;30.03;;;;;;;;;;5014198;28;20028;-63
2022/01/05 06:22:12;;;;;;;48.23;30.33;;;;;;;;;;4994637;28;20026;-63
2022/01/05 06:24:42;;;;;;;45.83;28.57;;;;;;;;;;5013495;28;20038;-63
2022/01/05 06:27:09;;;;;;;46.53;28.87;;;;;;;;;;5012529;28;20037;-63
2022/01/05 06:29:37;;;;;;;46.70;28.53;;;;;;;;;;5021003;28;20022;-63
2022/01/05 06:32:03;;;;;;;47.80;28.30;;;;;;;;;;5011478;28;20052;-63
2022/01/05 06:34:29;;;;;;;44.40;28.83;;;;;;;;;;5013393;28;20052;-63
2022/01/05 06:36:55;;;;;;;43.63;28.63;;;;;;;;;;5012343;28;20426;-63
2022/01/05 06:39:21;;;;;;;36.03;25.00;;;;;;;;;;5018129;28;20471;-63
2022/01/05 06:41:47;;;;;;;40.47;26.33;;;;;;;;;;5028821;28;20040;-63
2022/01/05 06:44:13;;;;;;;39.40;26.83;;;;;;;;;;5012192;28;20036;-63
2022/01/05 06:46:39;;;;;;;40.40;27.67;;;;;;;;;;5012019;28;20033;-63
2022/01/05 06:49:05;;;;;;;38.57;26.37;;;;;;;;;;5012589;28;20037;-63
2022/01/05 06:51:31;;;;;;;39.93;26.20;;;;;;;;;;5012939;28;20029;-63
2022/01/05 06:53:57;;;;;;;36.87;23.80;;;;;;;;;;5012860;28;20176;-63
2022/01/05 06:56:23;;;;;;;38.57;23.90;;;;;;;;;;5012875;28;20124;-63
2022/01/05 06:58:49;;;;;;;40.20;25.80;;;;;;;;;;5012375;28;20377;-63
2022/01/05 07:01:15;;;;;;;36.00;24.57;;;;;;;;;;5012767;28;20033;-63
2022/01/05 07:03:41;;;;;;;36.10;24.37;;;;;;;;;;5020432;28;20032;-63
2022/01/05 07:06:07;;;;;;;29.23;21.57;;;;;;;;;;5013228;28;20030;-63
2022/01/05 07:08:33;;;;;;;34.10;22.13;;;;;;;;;;5011868;28;20052;-63
2022/01/05 07:10:59;;;;;;;37.17;24.27;;;;;;;;;;5012951;28;20030;-63
2022/01/05 07:13:25;;;;;;;26.83;19.23;;;;;;;;;;4997464;28;20053;-63
2022/01/05 07:15:51;;;;;;;27.97;20.07;;;;;;;;;;5022809;28;20034;-63
2022/01/05 07:18:17;;;;;;;28.90;21.17;;;;;;;;;;5020846;28;20058;-63
2022/01/05 07:20:45;;;;;;;27.87;20.10;;;;;;;;;;5017024;28;20029;-63
2022/01/05 07:23:11;;;;;;;33.87;22.20;;;;;;;;;;5015770;28;20029;-63
2022/01/05 07:25:37;;;;;;;36.63;23.07;;;;;;;;;;5002990;28;20477;-63
2022/01/05 07:28:03;;;;;;;28.47;20.97;;;;;;;;;;5022721;28;20487;-63
2022/01/05 07:30:29;;;;;;;27.43;20.60;;;;;;;;;;5016406;28;20480;-63
2022/01/05 07:32:55;;;;;;;27.23;19.23;;;;;;;;;;5015583;28;20050;-63
2022/01/05 07:35:21;;;;;;;23.40;18.17;;;;;;;;;;5016210;28;20498;-63
2022/01/05 07:37:47;;;;;;;21.70;16.93;;;;;;;;;;5018332;28;20034;-63
2022/01/05 07:40:13;;;;;;;25.70;18.27;;;;;;;;;;5014635;28;20109;-63
2022/01/05 07:42:39;;;;;;;19.97;15.97;;;;;;;;;;5014973;28;20395;-63
2022/01/05 07:45:07;;;;;;;18.83;14.50;;;;;;;;;;5016041;28;20026;-62
2022/01/05 07:47:33;;;;;;;23.20;17.60;;;;;;;;;;5015646;28;20096;-63
2022/01/05 07:49:59;;;;;;;26.17;18.97;;;;;;;;;;5001963;28;20117;-63
2022/01/05 07:52:25;;;;;;;24.73;19.93;;;;;;;;;;5014370;28;20113;-63
2022/01/05 07:54:52;;;;;;;22.90;17.20;;;;;;;;;;5015719;28;20394;-63
2022/01/05 07:57:18;;;;;;;21.60;17.03;;;;;;;;;;5015597;28;20030;-63
2022/01/05 07:59:44;;;;;;;24.20;18.63;;;;;;;;;;5005625;28;20415;-63
2022/01/05 08:02:10;;;;;;;24.07;19.07;;;;;;;;;;5014741;28;20033;-63
2022/01/05 08:04:36;;;;;;;26.23;19.33;;;;;;;;;;5015174;28;20113;-63
2022/01/05 08:07:02;;;;;;;23.47;18.50;;;;;;;;;;5015506;28;20022;-63
2022/01/05 08:09:29;;;;;;;25.63;19.63;;;;;;;;;;4996705;28;20077;-63
2022/01/05 08:11:56;;;;;;;26.00;19.50;;;;;;;;;;5021862;28;20112;-62
2022/01/05 08:14:22;;;;;;;24.07;18.63;;;;;;;;;;5014726;28;20026;-63
2022/01/05 08:16:48;;;;;;;27.40;17.33;;;;;;;;;;5014430;28;20399;-63
2022/01/05 08:19:14;;;;;;;23.27;16.83;;;;;;;;;;5010645;28;20038;-63
2022/01/05 08:21:40;;;;;;;26.83;18.43;;;;;;;;;;5024253;28;20025;-63
2022/01/05 08:24:07;;;;;;;27.00;17.43;;;;;;;;;;5020704;28;20021;-63
2022/01/05 08:26:33;;;;;;;22.83;16.20;;;;;;;;;;5015400;28;20065;-63
2022/01/05 08:28:59;;;;;;;19.67;15.60;;;;;;;;;;5012463;28;20100;-64
2022/01/05 08:31:26;;;;;;;20.17;14.60;;;;;;;;;;5026838;28;20110;-63
2022/01/05 08:33:56;;;;;;;17.67;13.23;;;;;;;;;;4999927;28;20068;-64
2022/01/05 08:36:22;;;;;;;22.97;14.20;;;;;;;;;;5015435;28;20064;-64
2022/01/05 08:38:48;;;;;;;16.30;12.80;;;;;;;;;;5012956;28;20113;-63
2022/01/05 08:41:14;;;;;;;15.73;11.80;;;;;;;;;;5015165;28;20022;-64
2022/01/05 08:43:40;;;;;;;17.77;13.17;;;;;;;;;;5014058;28;20030;-63
2022/01/05 08:46:06;;;;;;;14.53;11.83;;;;;;;;;;5014313;28;20034;-63
2022/01/05 08:48:32;;;;;;;15.37;11.20;;;;;;;;;;5021143;28;20101;-63
2022/01/05 08:50:59;;;;;;;13.20;10.73;;;;;;;;;;5015071;28;20056;-64
2022/01/05 08:53:25;;;;;;;15.77;11.57;;;;;;;;;;5013207;28;20083;-64
2022/01/05 08:55:51;;;;;;;17.50;13.27;;;;;;;;;;5014867;28;20491;-64
2022/01/05 08:58:18;;;;;;;16.90;12.57;;;;;;;;;;5013378;28;20026;-64
2022/01/05 09:00:44;;;;;;;20.23;13.83;;;;;;;;;;5014781;28;20041;-64
2022/01/05 09:03:13;;;;;;;17.00;12.47;;;;;;;;;;5014234;28;20033;-64
2022/01/05 09:05:39;;;;;;;17.20;12.87;;;;;;;;;;5015000;28;20030;-64
2022/01/05 09:08:05;;;;;;;16.40;13.63;;;;;;;;;;5015501;28;20021;-64
2022/01/05 09:10:32;;;;;;;14.50;12.17;;;;;;;;;;5014596;28;20038;-64
2022/01/05 09:12:58;;;;;;;16.27;12.50;;;;;;;;;;5013418;28;20053;-64
2022/01/05 09:15:25;;;;;;;16.20;12.43;;;;;;;;;;4994829;28;20041;-64
2022/01/05 09:17:51;;;;;;;14.53;11.17;;;;;;;;;;5007992;28;20472;-64
2022/01/05 09:20:17;;;;;;;13.97;10.73;;;;;;;;;;5023973;28;20073;-63
2022/01/05 09:22:43;;;;;;;17.37;11.10;;;;;;;;;;5003952;28;20030;-62
2022/01/05 09:25:10;;;;;;;14.70;11.63;;;;;;;;;;5016356;28;20033;-63
2022/01/05 09:27:37;;;;;;;15.43;11.73;;;;;;;;;;5028665;28;20471;-63
2022/01/05 09:30:04;;;;;;;15.87;13.27;;;;;;;;;;5013443;28;20030;-63
2022/01/05 09:32:30;;;;;;;24.45;17.23;;;;;;;;;;5019011;28;20046;-63
2022/01/05 09:34:56;;;;;;;22.17;16.90;;;;;;;;;;5013170;28;20101;-63
2022/01/05 09:37:29;;;;;;;26.23;17.07;;;;;;;;;;5013063;28;20096;-63
2022/01/05 09:42:41;;;;;;;21.73;16.10;;;;;;;;;;5022374;28;20054;-63
2022/01/05 09:45:16;;;;;;;21.83;16.85;;;;;;;;;;5015394;28;20040;-63
2022/01/05 09:47:43;;;;;;;;;;;;;;;;;;5014221;28;20088;-63
2022/01/05 09:50:10;;;;;;;21.77;17.20;;;;;;;;;;5013127;28;19949;-63
2022/01/05 09:52:41;;;;;;;24.00;16.07;;;;;;;;;;5014859;28;20045;-63
2022/01/05 09:55:08;;;;;;;23.53;15.60;;;;;;;;;;5011656;28;20025;-63
2022/01/05 09:57:35;;;;;;;19.17;15.47;;;;;;;;;;4996197;28;20395;-63
2022/01/05 10:00:01;;;;;;;16.67;14.15;;;;;;;;;;5013044;28;20026;-63
2022/01/05 10:02:28;;;;;;;15.40;12.23;;;;;;;;;;5012641;28;20026;-63
2022/01/05 10:04:55;;;;;;;20.13;14.40;;;;;;;;;;5012897;28;20112;-64
2022/01/05 10:07:21;;;;;;;18.13;14.80;;;;;;;;;;5012034;28;20076;-63
2022/01/05 10:09:49;;;;;;;23.60;17.15;;;;;;;;;;5011284;28;20022;-63
2022/01/05 10:12:15;;;;;;;24.10;16.83;;;;;;;;;;5011776;28;20049;-63
2022/01/05 10:14:42;;;;;;;25.42;19.10;;;;;;;;;;5011773;28;20030;-63
2022/01/05 10:17:11;;;;;;;29.80;19.67;;;;;;;;;;5012919;28;20505;-63
2022/01/05 10:19:38;;;;;;;25.80;19.60;;;;;;;;;;5008698;28;20375;-63
2022/01/05 10:22:24;;;;;;;17.15;13.23;;;;;;;;;;5021164;28;20026;-63
2022/01/05 10:24:50;;;;;;;17.00;13.00;;;;;;;;;;4993883;28;20030;-63
2022/01/05 10:27:20;;;;;;;17.40;13.90;;;;;;;;;;5011730;28;20479;-63
2022/01/05 10:29:53;;;;;;;19.55;15.13;;;;;;;;;;5009083;28;20025;-63
2022/01/05 10:32:19;;;;;;;15.60;12.55;;;;;;;;;;5009131;28;20072;-64
2022/01/05 10:34:58;;;;;;;15.05;12.55;;;;;;;;;;5009214;28;20025;-63
2022/01/05 10:37:24;;;;;;;17.33;13.57;;;;;;;;;;5008969;28;20022;-63
2022/01/05 10:40:03;;;;;;;15.73;11.98;;;;;;;;;;5008936;28;20472;-63
2022/01/05 10:42:30;;;;;;;16.40;12.43;;;;;;;;;;5011216;28;20037;-64
2022/01/05 10:44:56;;;;;;;16.20;12.98;;;;;;;;;;5008255;28;20105;-63
2022/01/05 10:47:22;;;;;;;19.05;14.10;;;;;;;;;;5013128;28;20105;-63
2022/01/05 10:49:49;;;;;;;21.13;15.57;;;;;;;;;;5011796;28;20388;-64
2022/01/05 10:52:21;;;;;;;23.65;17.38;;;;;;;;;;5018285;28;20438;-63
2022/01/05 10:54:47;;;;;;;23.52;18.00;;;;;;;;;;5013107;28;20080;-63
2022/01/05 10:57:14;;;;;;;21.27;18.05;;;;;;;;;;5012504;28;20030;-64
2022/01/05 10:59:42;;;;;;;21.80;17.70;;;;;;;;;;5010067;28;20033;-64
2022/01/05 11:02:38;;;;;;;20.75;16.70;;;;;;;;;;5013431;28;20105;-64
2022/01/05 11:05:03;;;;;;;;;;;;;;;;;;4995131;28;20053;-65
2022/01/05 11:07:31;;;;;;;17.00;14.20;;;;;;;;;;5011696;28;19909;-63
2022/01/05 11:10:11;;;;;;;19.23;13.45;;;;;;;;;;5009901;28;20113;-63
2022/01/05 11:12:39;;;;;;;16.83;12.73;;;;;;;;;;5013520;28;20057;-64
2022/01/05 11:15:20;;;;;;;17.65;13.57;;;;;;;;;;5009641;28;20103;-63
2022/01/05 11:18:04;;;;;;;16.00;12.87;;;;;;;;;;5013172;28;20037;-63
2022/01/05 11:20:30;;;;;;;15.60;13.88;;;;;;;;;;5011932;28;20029;-64
2022/01/05 11:22:57;;;;;;;15.45;13.35;;;;;;;;;;5012738;28;20398;-63
2022/01/05 11:25:23;;;;;;;14.55;12.45;;;;;;;;;;5011180;28;20023;-64
2022/01/05 11:27:50;;;;;;;18.83;15.05;;;;;;;;;;5013074;28;20132;-64
2022/01/05 11:30:16;;;;;;;17.77;15.43;;;;;;;;;;5011430;28;20088;-64
2022/01/05 11:32:42;;;;;;;21.63;16.67;;;;;;;;;;5011946;28;20038;-64
2022/01/05 11:35:08;;;;;;;18.65;15.50;;;;;;;;;;5013503;28;20026;-63
2022/01/05 11:37:35;;;;;;;21.65;15.70;;;;;;;;;;5012548;28;20565;-64
2022/01/05 11:40:03;;;;;;;18.60;15.50;;;;;;;;;;5012329;28;20097;-64
2022/01/05 11:42:30;;;;;;;18.67;15.30;;;;;;;;;;5012146;28;20029;-64
2022/01/05 11:44:57;;;;;;;17.42;14.45;;;;;;;;;;5010575;28;20100;-64
2022/01/05 11:47:27;;;;;;;17.33;14.53;;;;;;;;;;5011995;28;20132;-64
2022/01/05 11:49:54;;;;;;;15.40;12.80;;;;;;;;;;5012056;28;20025;-64
2022/01/05 11:52:40;;;;;;;15.13;13.50;;;;;;;;;;5011433;28;20045;-63
2022/01/05 11:55:06;;;;;;;15.93;13.00;;;;;;;;;;5010153;28;20419;-63
2022/01/05 11:57:32;;;;;;;14.70;12.97;;;;;;;;;;5010698;28;20038;-64
2022/01/05 12:00:19;;;;;;;14.00;12.50;;;;;;;;;;5011417;28;20030;-63
2022/01/05 12:02:45;;;;;;;15.18;13.00;;;;;;;;;;5007787;28;20040;-64
2022/01/05 12:05:11;;;;;;;14.67;13.17;;;;;;;;;;5013057;28;20053;-64
2022/01/05 12:07:40;;;;;;;16.65;13.18;;;;;;;;;;4992763;28;20025;-64
2022/01/05 12:10:12;;;;;;;17.33;15.17;;;;;;;;;;5010275;28;20037;-64
2022/01/05 12:12:51;;;;;;;14.80;13.20;;;;;;;;;;5011371;28;20042;-64
2022/01/05 12:15:37;;;;;;;16.48;14.05;;;;;;;;;;5013807;28;20112;-64
2022/01/05 12:18:04;;;;;;;15.75;13.63;;;;;;;;;;5014457;28;20049;-65
2022/01/05 12:20:34;;;;;;;16.70;14.40;;;;;;;;;;5015611;28;20488;-64
2022/01/05 12:23:24;;;;;;;19.33;16.10;;;;;;;;;;5014304;28;20018;-64
2022/01/05 12:26:08;;;;;;;18.93;16.67;;;;;;;;;;5014781;28;20022;-64
2022/01/05 12:28:36;;;;;;;20.42;17.63;;;;;;;;;;5014773;28;20030;-64
2022/01/05 12:31:02;;;;;;;21.05;18.23;;;;;;;;;;5014078;28;20471;-63
2022/01/05 12:33:49;;;;;;;23.27;19.52;;;;;;;;;;4994485;28;20033;-64
2022/01/05 12:36:31;;;;;;;22.80;20.15;;;;;;;;;;4999664;28;20023;-64
2022/01/05 12:38:57;;;;;;;23.73;20.23;;;;;;;;;;5011357;28;20076;-63
2022/01/05 12:41:42;;;;;;;23.90;20.60;;;;;;;;;;5025735;28;20479;-63
2022/01/05 12:44:11;;;;;;;25.30;21.58;;;;;;;;;;5012562;28;20148;-63
2022/01/05 12:46:44;;;;;;;27.23;23.08;;;;;;;;;;5013957;28;20069;-63
2022/01/05 12:49:17;;;;;;;31.65;24.38;;;;;;;;;;5020366;28;20036;-64
2022/01/05 12:51:44;;;;;;;30.40;24.60;;;;;;;;;;5010168;28;20088;-65
2022/01/05 12:54:13;;;;;;;32.92;25.52;;;;;;;;;;5014481;28;20037;-64
2022/01/05 12:56:42;;;;;;;32.42;25.95;;;;;;;;;;5014918;28;20030;-64
2022/01/05 12:59:15;;;;;;;37.43;26.33;;;;;;;;;;5022318;28;20123;-64
2022/01/05 13:01:43;;;;;;;34.60;27.73;;;;;;;;;;5019476;28;20061;-64
2022/01/05 13:04:10;;;;;;;34.78;27.25;;;;;;;;;;5014171;28;20108;-63
2022/01/05 13:06:37;;;;;;;35.43;28.03;;;;;;;;;;5014341;28;20386;-63
2022/01/05 13:09:06;;;;;;;30.97;25.13;;;;;;;;;;5013798;28;20471;-64
2022/01/05 13:11:54;;;;;;;34.05;25.50;;;;;;;;;;5022325;28;20024;-64
2022/01/05 13:14:20;;;;;;;31.50;24.03;;;;;;;;;;5014108;28;20141;-63
2022/01/05 13:16:51;;;;;;;33.05;24.83;;;;;;;;;;5012818;28;20447;-63
2022/01/05 13:19:39;;;;;;;29.17;24.27;;;;;;;;;;5005467;28;20030;-64
2022/01/05 13:22:09;;;;;;;32.30;24.90;;;;;;;;;;5008130;28;20451;-63
2022/01/05 13:24:45;;;;;;;32.80;25.97;;;;;;;;;;5013743;28;20034;-63
2022/01/05 13:27:12;;;;;;;31.07;24.63;;;;;;;;;;5013282;28;20080;-62
2022/01/05 13:29:38;;;;;;;32.77;26.13;;;;;;;;;;5012694;28;20100;-63
2022/01/05 13:32:05;;;;;;;35.33;26.90;;;;;;;;;;5021070;28;20030;-64
2022/01/05 13:34:31;;;;;;;28.95;23.20;;;;;;;;;;5013266;28;20036;-63
2022/01/05 13:36:57;;;;;;;34.15;25.73;;;;;;;;;;5013785;28;20462;-64
2022/01/05 13:39:35;;;;;;;32.33;24.00;;;;;;;;;;5013430;28;20555;-63
2022/01/05 13:42:01;;;;;;;31.23;24.90;;;;;;;;;;5021443;28;20036;-63
2022/01/05 13:44:27;;;;;;;29.50;23.38;;;;;;;;;;5016835;28;20104;-64
2022/01/05 13:46:53;;;;;;;30.93;24.77;;;;;;;;;;5034128;28;20026;-63
2022/01/05 13:49:20;;;;;;;28.80;23.27;;;;;;;;;;5014637;28;20092;-63
2022/01/05 13:52:24;;;;;;;28.35;23.27;;;;;;;;;;5018292;28;20113;-63
2022/01/05 13:54:50;;;;;;;31.60;25.02;;;;;;;;;;4952565;29;20117;-63
2022/01/05 13:57:27;;;;;;;33.17;23.40;;;;;;;;;;4952899;29;20099;-63
2022/01/05 13:59:58;;;;;;;27.70;22.10;;;;;;;;;;4975251;28;20042;-63
2022/01/05 14:02:25;;;;;;;26.67;22.30;;;;;;;;;;5008016;28;20029;-63
2022/01/05 14:04:55;;;;;;;29.65;22.67;;;;;;;;;;5005611;28;20027;-63
2022/01/05 14:07:23;;;;;;;29.50;22.90;;;;;;;;;;4995215;28;20108;-63
2022/01/05 14:10:05;;;;;;;29.10;23.50;;;;;;;;;;5012876;28;20034;-63
2022/01/05 14:12:32;;;;;;;26.85;21.73;;;;;;;;;;5012909;28;20045;-63
2022/01/05 14:14:59;;;;;;;30.80;24.05;;;;;;;;;;5013255;28;20060;-64
2022/01/05 14:17:26;;;;;;;34.47;24.95;;;;;;;;;;5013167;28;20026;-63
2022/01/05 14:20:11;;;;;;;27.67;22.30;;;;;;;;;;5012388;28;20480;-64
2022/01/05 14:22:37;;;;;;;30.85;22.20;;;;;;;;;;5029173;28;20034;-64
2022/01/05 14:25:04;;;;;;;29.15;22.10;;;;;;;;;;5012974;28;20037;-64
2022/01/05 14:27:35;;;;;;;26.10;20.58;;;;;;;;;;5012780;28;20444;-64